createdAt,value
2022-08-25T00:01:23.333Z,14.20
2022-08-25T00:03:55.261Z,13.25
2022-08-25T00:06:23.931Z,12.93
2022-08-25T00:08:51.580Z,13.00
2022-08-25T00:11:24.640Z,12.85
2022-08-25T00:13:55.656Z,12.50
2022-08-25T00:16:23.954Z,12.88
2022-08-25T00:18:56.999Z,14.05
2022-08-25T00:21:25.041Z,14.23
2022-08-25T00:23:51.980Z,13.65
2022-08-25T00:26:19.415Z,14.90
2022-08-25T00:28:46.409Z,14.27
2022-08-25T00:31:17.068Z,13.93
2022-08-25T00:33:45.947Z,15.57
2022-08-25T00:36:12.783Z,15.15
2022-08-25T00:38:40.882Z,15.27
2022-08-25T00:41:10.267Z,15.45
2022-08-25T00:43:45.804Z,15.07
2022-08-25T00:46:20.230Z,14.35
2022-08-25T00:48:51.920Z,14.25
2022-08-25T00:51:25.768Z,14.60
2022-08-25T00:53:52.608Z,15.40
2022-08-25T00:56:20.708Z,15.90
2022-08-25T00:58:48.998Z,16.25
2022-08-25T01:01:15.837Z,15.50
2022-08-25T01:03:42.717Z,13.80
2022-08-25T01:06:11.848Z,15.35
2022-08-25T01:08:39.132Z,15.10
2022-08-25T01:11:08.017Z,15.52
2022-08-25T01:13:49.679Z,15.90
2022-08-25T01:16:17.379Z,16.85
2022-08-25T01:18:48.920Z,15.27
2022-08-25T01:21:16.195Z,16.50
2022-08-25T01:23:43.054Z,16.58
2022-08-25T01:26:17.715Z,16.67
2022-08-25T01:29:05.579Z,14.77
2022-08-25T01:31:34.390Z,14.38
2022-08-25T01:34:01.643Z,15.85
2022-08-25T01:36:29.892Z,15.63
2022-08-25T01:38:57.206Z,15.43
2022-08-25T01:41:30.000Z,15.57
2022-08-25T01:43:57.109Z,13.88
2022-08-25T01:46:24.026Z,14.00
2022-08-25T01:48:51.145Z,13.68
2022-08-25T01:51:24.043Z,13.57
2022-08-25T01:53:51.097Z,13.93
2022-08-25T01:56:18.112Z,16.92
2022-08-25T01:58:48.126Z,13.77
2022-08-25T02:01:19.166Z,14.05
2022-08-25T02:03:48.579Z,13.60
2022-08-25T02:06:20.232Z,13.93
2022-08-25T02:08:51.943Z,13.68
2022-08-25T02:11:18.757Z,12.90
2022-08-25T02:13:45.585Z,13.38
2022-08-25T02:16:18.695Z,12.60
2022-08-25T02:18:45.824Z,12.85
2022-08-25T02:21:13.076Z,12.18
2022-08-25T02:23:40.588Z,11.70
2022-08-25T02:26:07.902Z,11.93
2022-08-25T02:28:34.943Z,11.18
2022-08-25T02:31:01.949Z,12.15
2022-08-25T02:33:29.216Z,11.70
2022-08-25T02:36:00.433Z,12.80
2022-08-25T02:38:29.169Z,11.60
2022-08-25T02:41:00.433Z,10.95
2022-08-25T02:43:28.427Z,11.50
2022-08-25T02:45:59.580Z,12.00
2022-08-25T02:48:26.456Z,12.27
2022-08-25T02:50:53.313Z,12.40
2022-08-25T02:53:21.379Z,12.90
2022-08-25T02:55:48.352Z,12.25
2022-08-25T02:58:15.951Z,14.70
2022-08-25T03:00:43.211Z,12.57
2022-08-25T03:03:10.280Z,13.05
2022-08-25T03:05:37.106Z,13.13
2022-08-25T03:08:05.440Z,12.95
2022-08-25T03:10:33.122Z,12.82
2022-08-25T03:12:59.923Z,13.43
2022-08-25T03:15:27.942Z,12.82
2022-08-25T03:17:59.851Z,13.65
2022-08-25T03:20:28.159Z,13.88
2022-08-25T03:22:55.000Z,14.10
2022-08-25T03:25:40.580Z,14.60
2022-08-25T03:28:08.395Z,14.18
2022-08-25T03:30:35.440Z,14.10
2022-08-25T03:33:02.694Z,13.98
2022-08-25T03:35:30.101Z,14.02
2022-08-25T03:37:59.064Z,13.55
2022-08-25T03:40:27.355Z,14.48
2022-08-25T03:42:56.990Z,13.95
2022-08-25T03:45:25.282Z,13.73
2022-08-25T03:47:53.702Z,13.98
2022-08-25T03:50:22.074Z,15.05
2022-08-25T03:52:55.073Z,15.60
2022-08-25T03:55:23.751Z,15.15
2022-08-25T03:57:52.003Z,14.93
2022-08-25T04:00:19.475Z,17.10
2022-08-25T04:02:47.136Z,14.77
2022-08-25T04:05:15.873Z,16.35
2022-08-25T04:07:42.875Z,15.80
2022-08-25T04:10:11.046Z,16.77
2022-08-25T04:12:38.380Z,15.98
2022-08-25T04:15:07.383Z,16.08
2022-08-25T04:17:37.189Z,14.77
2022-08-25T04:22:32.110Z,14.32
2022-08-25T04:25:05.195Z,15.43
2022-08-25T04:27:32.353Z,15.80
2022-08-25T04:29:59.177Z,17.30
2022-08-25T04:32:26.027Z,17.48
2022-08-25T04:34:52.992Z,17.35
2022-08-25T04:37:19.849Z,16.45
2022-08-25T04:39:46.723Z,17.77
2022-08-25T04:42:13.758Z,17.05
2022-08-25T04:44:40.600Z,18.10
2022-08-25T04:47:07.594Z,17.25
2022-08-25T04:49:34.483Z,17.98
2022-08-25T04:52:01.302Z,17.67
2022-08-25T04:54:28.413Z,16.38
2022-08-25T04:56:58.680Z,16.45
2022-08-25T04:59:29.376Z,18.35
2022-08-25T05:01:58.986Z,16.83
2022-08-25T05:04:27.842Z,18.30
2022-08-25T05:06:55.988Z,17.58
2022-08-25T05:09:23.311Z,19.38
2022-08-25T05:11:52.342Z,16.25
2022-08-25T05:14:25.744Z,16.73
2022-08-25T05:16:55.199Z,17.42
2022-08-25T05:19:24.442Z,16.80
2022-08-25T05:21:51.960Z,17.58
2022-08-25T05:24:20.634Z,17.42
2022-08-25T05:26:47.537Z,16.48
2022-08-25T05:29:14.642Z,17.67
2022-08-25T05:31:49.883Z,19.50
2022-08-25T05:34:19.048Z,18.85
2022-08-25T05:36:46.252Z,18.47
2022-08-25T05:39:13.337Z,16.88
2022-08-25T05:41:40.602Z,18.52
2022-08-25T05:44:07.906Z,18.58
2022-08-25T05:46:34.843Z,18.92
2022-08-25T05:49:02.117Z,18.27
2022-08-25T05:51:29.229Z,17.88
2022-08-25T05:53:56.328Z,18.60
2022-08-25T05:56:23.287Z,18.75
2022-08-25T05:58:50.952Z,17.45
2022-08-25T06:01:43.315Z,19.58
2022-08-25T06:04:10.695Z,19.83
2022-08-25T06:06:38.754Z,17.40
2022-08-25T06:09:08.601Z,17.67
2022-08-25T06:14:03.098Z,17.35
2022-08-25T06:16:30.076Z,21.98
2022-08-25T06:18:57.166Z,20.73
2022-08-25T06:21:24.210Z,20.27
2022-08-25T06:23:51.107Z,17.50
2022-08-25T06:26:21.419Z,18.75
2022-08-25T06:28:50.234Z,18.40
2022-08-25T06:31:18.061Z,18.63
2022-08-25T06:33:45.288Z,17.67
2022-08-25T06:36:12.234Z,18.38
2022-08-25T06:38:39.097Z,21.35
2022-08-25T06:41:08.685Z,17.95
2022-08-25T06:43:35.631Z,16.65
2022-08-25T06:46:10.259Z,16.40
2022-08-25T06:48:37.848Z,17.75
2022-08-25T06:51:08.985Z,18.90
2022-08-25T06:53:41.495Z,17.05
2022-08-25T06:56:08.887Z,17.48
2022-08-25T06:58:36.039Z,16.30
2022-08-25T07:01:31.907Z,16.00
2022-08-25T07:04:01.252Z,17.27
2022-08-25T07:06:31.879Z,16.42
2022-08-25T07:09:00.025Z,19.00
2022-08-25T07:11:27.007Z,15.63
2022-08-25T07:13:54.113Z,15.82
2022-08-25T07:16:22.200Z,15.13
2022-08-25T07:18:50.815Z,17.83
2022-08-25T07:21:21.686Z,14.68
2022-08-25T07:23:52.539Z,14.82
2022-08-25T07:26:36.376Z,14.43
2022-08-25T07:29:31.691Z,16.13
2022-08-25T07:32:01.780Z,14.32
2022-08-25T07:34:51.920Z,13.75
2022-08-25T07:37:47.239Z,14.60
2022-08-25T07:40:09.123Z,14.80
2022-08-25T07:42:36.322Z,13.10
2022-08-25T07:45:07.233Z,13.20
2022-08-25T07:47:34.909Z,13.35
2022-08-25T07:50:02.248Z,12.93
2022-08-25T07:52:32.726Z,11.63
2022-08-25T07:55:00.675Z,12.38
2022-08-25T07:57:29.815Z,12.73
2022-08-25T07:59:59.038Z,12.55
2022-08-25T08:02:26.650Z,11.85
2022-08-25T08:04:54.001Z,10.95
2022-08-25T08:07:23.708Z,11.65
2022-08-25T08:10:42.177Z,11.85
2022-08-25T08:12:54.562Z,13.45
2022-08-25T08:15:22.339Z,12.65
2022-08-25T08:17:49.376Z,12.50
2022-08-25T08:20:17.954Z,13.18
2022-08-25T08:22:50.684Z,11.35
2022-08-25T08:25:18.688Z,11.45
2022-08-25T08:27:48.962Z,12.00
2022-08-25T08:30:17.113Z,11.87
2022-08-25T08:33:08.615Z,11.77
2022-08-25T08:35:31.332Z,11.80
2022-08-25T08:37:58.115Z,12.98
2022-08-25T08:40:25.097Z,12.10
2022-08-25T08:43:06.384Z,11.98
2022-08-25T08:45:40.660Z,12.23
2022-08-25T08:48:39.286Z,12.10
2022-08-25T08:51:23.166Z,11.77
2022-08-25T08:53:50.195Z,13.68
2022-08-25T08:56:49.522Z,11.38
2022-08-25T08:59:22.272Z,11.73
2022-08-25T09:02:00.784Z,12.32
2022-08-25T09:05:03.460Z,11.88
2022-08-25T09:07:42.267Z,12.02
2022-08-25T09:10:10.728Z,11.88
2022-08-25T09:13:00.208Z,11.85
2022-08-25T09:16:03.643Z,12.32
2022-08-25T09:18:54.379Z,11.27
2022-08-25T09:21:31.379Z,12.15
2022-08-25T09:24:10.087Z,12.18
2022-08-25T09:27:06.717Z,12.80
2022-08-25T09:30:05.424Z,11.90
2022-08-25T09:35:10.221Z,11.77
2022-08-25T09:37:37.042Z,11.40
2022-08-25T09:40:04.400Z,11.82
2022-08-25T09:42:50.030Z,11.23
2022-08-25T09:45:30.464Z,11.40
2022-08-25T09:47:57.305Z,12.65
2022-08-25T09:50:24.206Z,12.10
2022-08-25T09:52:53.476Z,9.75
2022-08-25T09:55:29.748Z,10.05
2022-08-25T10:00:33.859Z,11.50
2022-08-25T10:03:05.541Z,11.32
2022-08-25T10:05:35.750Z,11.30
2022-08-25T10:08:11.253Z,10.77
2022-08-25T10:10:46.441Z,11.43
2022-08-25T10:13:22.872Z,11.00
2022-08-25T10:16:20.545Z,10.43
2022-08-25T10:19:30.238Z,11.57
2022-08-25T10:22:03.218Z,10.48
2022-08-25T10:24:30.151Z,11.27
2022-08-25T10:27:28.744Z,10.95
2022-08-25T10:30:02.963Z,11.35
2022-08-25T10:32:48.331Z,12.52
2022-08-25T10:35:31.600Z,13.80
2022-08-25T10:38:36.108Z,9.82
2022-08-25T10:41:38.878Z,11.80
2022-08-25T10:44:42.164Z,10.05
2022-08-25T10:47:30.005Z,10.02
2022-08-25T10:50:10.698Z,9.63
2022-08-25T10:52:52.562Z,9.25
2022-08-25T10:55:34.864Z,9.20
2022-08-25T10:58:33.403Z,9.83
2022-08-25T11:01:28.807Z,11.82
2022-08-25T11:04:02.258Z,10.38
2022-08-25T11:06:54.611Z,10.38
2022-08-25T11:09:25.847Z,10.10
2022-08-25T11:11:57.812Z,10.25
2022-08-25T11:14:33.931Z,10.25
2022-08-25T11:17:10.119Z,9.88
2022-08-25T11:19:49.439Z,9.70
2022-08-25T11:22:24.057Z,10.13
2022-08-25T11:25:15.611Z,11.35
2022-08-25T11:27:55.571Z,9.30
2022-08-25T11:30:23.400Z,10.07
2022-08-25T11:32:54.773Z,10.98
2022-08-25T11:35:33.898Z,10.95
2022-08-25T11:38:04.905Z,9.32
2022-08-25T11:41:22.378Z,9.50
2022-08-25T11:44:11.163Z,11.75
2022-08-25T11:46:55.749Z,10.98
2022-08-25T11:49:37.686Z,8.48
2022-08-25T11:52:30.741Z,8.48
2022-08-25T11:55:06.228Z,8.65
2022-08-25T12:00:12.479Z,11.68
2022-08-25T12:02:42.759Z,9.18
2022-08-25T12:05:22.326Z,12.00
2022-08-25T12:08:41.682Z,9.38
2022-08-25T12:11:11.971Z,8.38
2022-08-25T12:13:49.658Z,9.02
2022-08-25T12:16:35.926Z,9.82
2022-08-25T12:19:35.238Z,10.10
2022-08-25T12:22:03.499Z,11.35
2022-08-25T12:24:54.756Z,9.25
2022-08-25T12:27:40.276Z,10.93
2022-08-25T12:30:32.781Z,9.35
2022-08-25T12:33:06.722Z,11.63
2022-08-25T12:35:57.486Z,9.13
2022-08-25T12:38:52.152Z,9.20
2022-08-25T12:41:26.478Z,9.10
2022-08-25T12:44:09.117Z,8.75
2022-08-25T12:46:39.714Z,9.38
2022-08-25T12:49:15.565Z,9.23
2022-08-25T12:52:06.784Z,8.20
2022-08-25T12:54:36.500Z,8.90
2022-08-25T12:57:38.070Z,9.30
2022-08-25T13:03:29.904Z,8.88
2022-08-25T13:09:26.920Z,8.82
2022-08-25T13:12:12.277Z,8.30
2022-08-25T13:14:42.297Z,10.93
2022-08-25T13:17:11.134Z,9.02
2022-08-25T13:19:38.594Z,8.70
2022-08-25T13:22:16.509Z,11.15
2022-08-25T13:24:47.585Z,10.43
2022-08-25T13:27:26.901Z,11.57
2022-08-25T13:29:58.305Z,9.10
2022-08-25T13:32:29.696Z,11.23
2022-08-25T13:35:19.942Z,9.80
2022-08-25T13:37:47.834Z,11.33
2022-08-25T13:40:29.682Z,11.50
2022-08-25T13:43:02.772Z,12.07
2022-08-25T13:45:41.234Z,14.82
2022-08-25T13:48:22.745Z,9.90
2022-08-25T13:50:52.809Z,10.90
2022-08-25T13:53:25.627Z,12.77
2022-08-25T13:55:59.178Z,10.48
2022-08-25T13:58:44.517Z,10.27
2022-08-25T14:01:22.916Z,9.32
2022-08-25T14:04:29.822Z,10.43
2022-08-25T14:07:33.658Z,9.43
2022-08-25T14:10:09.732Z,10.50
2022-08-25T14:12:42.103Z,9.82
2022-08-25T14:15:17.515Z,10.55
2022-08-25T14:17:48.929Z,11.40
2022-08-25T14:20:25.801Z,10.55
2022-08-25T14:22:57.879Z,11.13
2022-08-25T14:25:27.031Z,10.13
2022-08-25T14:28:07.219Z,11.50
2022-08-25T14:30:37.352Z,10.65
2022-08-25T14:33:05.204Z,9.52
2022-08-25T14:35:34.611Z,9.90
2022-08-25T14:38:10.426Z,9.48
2022-08-25T14:40:37.990Z,10.68
2022-08-25T14:43:05.316Z,11.23
2022-08-25T14:45:45.610Z,10.20
2022-08-25T14:48:35.616Z,11.05
2022-08-25T14:51:04.424Z,9.82
2022-08-25T14:53:32.228Z,9.65
2022-08-25T14:55:59.490Z,9.30
2022-08-25T14:58:27.578Z,9.13
2022-08-25T15:01:00.948Z,9.05
2022-08-25T15:03:41.703Z,9.18
2022-08-25T15:06:12.611Z,9.85
2022-08-25T15:08:58.601Z,9.40
2022-08-25T15:11:26.346Z,9.90
2022-08-25T15:13:54.340Z,9.90
2022-08-25T15:16:33.775Z,11.18
2022-08-25T15:19:03.189Z,8.25
2022-08-25T15:21:34.415Z,12.57
2022-08-25T15:24:03.667Z,9.10
2022-08-25T15:26:31.273Z,8.80
2022-08-25T15:28:59.647Z,9.00
2022-08-25T15:31:26.990Z,10.55
2022-08-25T15:33:54.877Z,11.18
2022-08-25T15:36:25.760Z,8.48
2022-08-25T15:38:53.380Z,10.57
2022-08-25T15:41:23.148Z,8.65
2022-08-25T15:43:54.995Z,9.10
2022-08-25T15:46:25.104Z,8.40
2022-08-25T15:48:53.235Z,8.75
2022-08-25T15:51:20.184Z,7.93
2022-08-25T15:53:47.223Z,10.70
2022-08-25T15:56:26.730Z,8.90
2022-08-25T15:58:54.543Z,9.02
2022-08-25T16:01:26.097Z,8.70
2022-08-25T16:03:54.212Z,9.70
2022-08-25T16:06:21.531Z,10.73
2022-08-25T16:08:48.466Z,10.30
2022-08-25T16:11:30.004Z,9.55
2022-08-25T16:13:57.951Z,10.20
2022-08-25T16:16:28.228Z,9.63
2022-08-25T16:18:55.682Z,11.55
2022-08-25T16:21:29.836Z,9.73
2022-08-25T16:24:05.519Z,10.88
2022-08-25T16:26:36.586Z,10.15
2022-08-25T16:29:06.672Z,12.00
2022-08-25T16:31:33.609Z,9.90
2022-08-25T16:34:01.647Z,10.00
2022-08-25T16:36:29.495Z,10.82
2022-08-25T16:38:57.818Z,9.75
2022-08-25T16:41:31.465Z,12.82
2022-08-25T16:43:58.668Z,10.77
2022-08-25T16:46:25.725Z,8.77
2022-08-25T16:48:53.630Z,8.93
2022-08-25T16:51:28.938Z,9.15
2022-08-25T16:54:22.013Z,8.90
2022-08-25T16:56:50.766Z,7.65
2022-08-25T16:59:23.382Z,8.13
2022-08-25T17:01:51.813Z,8.30
2022-08-25T17:04:19.516Z,8.70
2022-08-25T17:06:51.819Z,8.75
2022-08-25T17:09:22.815Z,8.77
2022-08-25T17:11:54.364Z,8.48
2022-08-25T17:14:22.084Z,10.57
2022-08-25T17:16:51.289Z,8.88
2022-08-25T17:19:18.797Z,8.50
2022-08-25T17:21:46.465Z,8.90
2022-08-25T17:24:13.884Z,10.60
2022-08-25T17:26:42.500Z,8.32
2022-08-25T17:29:10.107Z,8.95
2022-08-25T17:31:40.095Z,12.10
2022-08-25T17:34:16.366Z,10.02
2022-08-25T17:36:45.361Z,9.63
2022-08-25T17:39:14.202Z,8.83
2022-08-25T17:41:43.145Z,9.02
2022-08-25T17:44:09.992Z,8.68
2022-08-25T17:46:37.938Z,9.35
2022-08-25T17:49:07.894Z,8.85
2022-08-25T17:51:34.947Z,8.35
2022-08-25T17:54:02.065Z,8.93
2022-08-25T17:56:29.082Z,9.50
2022-08-25T17:58:57.141Z,8.88
2022-08-25T18:01:31.626Z,9.00
2022-08-25T18:03:59.434Z,11.00
2022-08-25T18:06:29.590Z,9.23
2022-08-25T18:09:00.052Z,8.70
2022-08-25T18:11:28.927Z,8.80
2022-08-25T18:13:57.629Z,11.35
2022-08-25T18:16:25.812Z,9.15
2022-08-25T18:18:55.035Z,11.88
2022-08-25T18:21:23.412Z,11.98
2022-08-25T18:23:50.451Z,12.60
2022-08-25T18:26:21.812Z,9.23
2022-08-25T18:28:51.698Z,12.40
2022-08-25T18:31:19.848Z,9.00
2022-08-25T18:33:47.119Z,9.73
2022-08-25T18:36:18.364Z,10.55
2022-08-25T18:39:04.071Z,9.00
2022-08-25T18:41:40.055Z,9.45
2022-08-25T18:44:08.148Z,9.95
2022-08-25T18:46:37.503Z,9.68
2022-08-25T18:49:04.576Z,10.40
2022-08-25T18:51:33.083Z,10.80
2022-08-25T18:54:01.002Z,9.37
2022-08-25T18:56:29.154Z,9.18
2022-08-25T18:58:57.256Z,8.93
2022-08-25T19:01:24.250Z,11.55
2022-08-25T19:03:51.342Z,8.98
2022-08-25T19:06:19.502Z,11.05
2022-08-25T19:08:48.058Z,10.52
2022-08-25T19:11:16.148Z,11.80
2022-08-25T19:13:43.414Z,12.77
2022-08-25T19:16:20.556Z,10.13
2022-08-25T19:18:48.939Z,13.05
2022-08-25T19:21:22.841Z,10.75
2022-08-25T19:23:50.896Z,10.93
2022-08-25T19:26:18.283Z,10.32
2022-08-25T19:28:49.497Z,10.10
2022-08-25T19:31:26.861Z,9.98
2022-08-25T19:33:55.601Z,10.13
2022-08-25T19:36:28.087Z,10.27
2022-08-25T19:39:01.522Z,11.40
2022-08-25T19:41:31.339Z,10.27
2022-08-25T19:43:59.589Z,12.60
2022-08-25T19:46:32.072Z,14.35
2022-08-25T19:49:07.171Z,13.00
2022-08-25T19:51:39.708Z,11.23
2022-08-25T19:54:08.985Z,12.18
2022-08-25T19:56:37.705Z,11.30
2022-08-25T19:59:11.489Z,12.43
2022-08-25T20:01:39.018Z,12.48
2022-08-25T20:04:07.445Z,12.57
2022-08-25T20:06:34.554Z,11.40
2022-08-25T20:09:02.659Z,11.10
2022-08-25T20:11:30.060Z,11.77
2022-08-25T20:14:00.471Z,10.88
2022-08-25T20:16:30.601Z,11.13
2022-08-25T20:18:57.634Z,9.60
2022-08-25T20:21:24.565Z,11.23
2022-08-25T20:24:23.499Z,12.20
2022-08-25T20:26:51.351Z,13.07
2022-08-25T20:29:18.379Z,12.10
2022-08-25T20:31:45.522Z,14.57
2022-08-25T20:34:13.544Z,12.60
2022-08-25T20:36:49.878Z,10.65
2022-08-25T20:39:18.157Z,10.15
2022-08-25T20:41:48.348Z,9.98
2022-08-25T20:44:17.319Z,10.95
2022-08-25T20:46:44.856Z,10.60
2022-08-25T20:49:12.780Z,9.95
2022-08-25T20:51:40.463Z,10.57
2022-08-25T20:54:07.818Z,10.15
2022-08-25T20:56:34.659Z,10.52
2022-08-25T20:59:02.189Z,10.35
2022-08-25T21:01:39.722Z,10.13
2022-08-25T21:04:14.323Z,10.15
2022-08-25T21:06:42.998Z,12.65
2022-08-25T21:09:15.853Z,13.40
2022-08-25T21:11:45.051Z,10.68
2022-08-25T21:14:12.817Z,10.43
2022-08-25T21:16:41.080Z,10.75
2022-08-25T21:19:11.064Z,11.10
2022-08-25T21:21:40.027Z,12.73
2022-08-25T21:24:10.036Z,13.40
2022-08-25T21:26:48.810Z,13.18
2022-08-25T21:29:16.928Z,10.77
2022-08-25T21:31:43.955Z,12.27
2022-08-25T21:34:11.723Z,10.30
2022-08-25T21:36:39.791Z,13.45
2022-08-25T21:39:07.496Z,12.80
2022-08-25T21:41:35.575Z,11.52
2022-08-25T21:44:04.048Z,12.35
2022-08-25T21:46:33.723Z,12.23
2022-08-25T21:49:05.879Z,11.98
2022-08-25T21:51:44.935Z,11.30
2022-08-25T21:54:15.326Z,11.60
2022-08-25T21:56:55.868Z,16.02
2022-08-25T21:59:27.243Z,12.93
2022-08-25T22:02:00.953Z,13.15
2022-08-25T22:04:28.581Z,11.95
2022-08-25T22:06:57.203Z,11.13
2022-08-25T22:09:26.141Z,10.50
2022-08-25T22:14:24.314Z,10.68
2022-08-25T22:16:54.089Z,15.00
2022-08-25T22:19:21.633Z,15.73
2022-08-25T22:21:50.848Z,14.85
2022-08-25T22:24:18.431Z,13.75
2022-08-25T22:26:47.599Z,10.88
2022-08-25T22:29:25.397Z,10.13
2022-08-25T22:31:59.313Z,11.68
2022-08-25T22:34:30.508Z,11.23
2022-08-25T22:37:00.775Z,11.50
2022-08-25T22:39:28.230Z,9.57
2022-08-25T22:41:55.474Z,14.50
2022-08-25T22:44:23.492Z,11.40
2022-08-25T22:46:50.630Z,13.38
2022-08-25T22:49:17.887Z,13.65
2022-08-25T22:51:46.960Z,13.10
2022-08-25T22:54:15.262Z,10.57
2022-08-25T22:56:42.780Z,12.18
2022-08-25T22:59:12.975Z,13.32
2022-08-25T23:01:42.141Z,11.00
2022-08-25T23:04:10.919Z,11.05
2022-08-25T23:06:38.494Z,9.98
2022-08-25T23:09:07.296Z,11.77
2022-08-25T23:11:35.807Z,11.30
2022-08-25T23:14:08.486Z,11.02
2022-08-25T23:19:02.328Z,10.38
2022-08-25T23:21:47.732Z,9.90
2022-08-25T23:24:29.314Z,10.27
2022-08-25T23:26:59.280Z,10.55
2022-08-25T23:29:27.850Z,10.13
2022-08-25T23:31:55.124Z,11.00
2022-08-25T23:34:22.260Z,10.15
2022-08-25T23:36:49.159Z,12.23
2022-08-25T23:39:16.083Z,10.00
2022-08-25T23:41:43.044Z,10.35
2022-08-25T23:44:11.777Z,10.93
2022-08-25T23:46:44.938Z,10.32
2022-08-25T23:49:12.576Z,10.55
2022-08-25T23:51:41.217Z,10.23
2022-08-25T23:54:11.839Z,10.90
2022-08-25T23:56:44.465Z,12.55
2022-08-25T23:59:14.366Z,11.60
